TimeCDT,TemperatureF,Dew PointF,Humidity,Sea Level PressureIn,VisibilityMPH,Wind Direction,Wind SpeedMPH,Gust SpeedMPH,PrecipitationIn,Events,Conditions,WindDirDegrees,DateUTC
12:15 AM,26.6,24.8,93,30.25,7.0,SSE,3.5,-,N/A,,Clear,160,2013-03-29 05:15:00
12:34 AM,28.4,24.8,86,30.25,7.0,SE,3.5,-,N/A,,Clear,140,2013-03-29 05:34:00
12:54 AM,26.6,24.8,93,30.25,10.0,SE,3.5,-,N/A,,Clear,130,2013-03-29 05:54:00
1:15 AM,24.8,21.2,86,30.25,7.0,Calm,Calm,-,N/A,,Clear,0,2013-03-29 06:15:00
1:34 AM,23.0,21.2,93,30.25,7.0,Calm,Calm,-,N/A,,Clear,0,2013-03-29 06:34:00
1:54 AM,21.2,17.6,86,30.25,7.0,Calm,Calm,-,N/A,,Clear,0,2013-03-29 06:54:00
2:15 AM,19.4,17.6,93,30.24,4.0,Calm,Calm,-,N/A,,Clear,0,2013-03-29 07:15:00
2:34 AM,19.4,17.6,93,30.24,5.0,SE,3.5,-,N/A,,Clear,140,2013-03-29 07:34:00
2:54 AM,17.6,17.6,100,30.24,5.0,Calm,Calm,-,N/A,,Clear,0,2013-03-29 07:54:00
3:15 AM,15.8,12.2,86,30.24,0.5,WSW,3.5,-,N/A,Fog,Light Freezing Fog,250,2013-03-29 08:15:00
3:34 AM,15.8,14.0,93,30.24,0.2,West,5.8,-,N/A,Snow,Light Snow,280,2013-03-29 08:34:00
3:55 AM,15.8,15.8,100,30.24,0.2,Calm,Calm,-,N/A,Fog,Light Freezing Fog,0,2013-03-29 08:55:00
4:15 AM,17.6,15.8,93,30.23,0.2,Calm,Calm,-,N/A,Fog,Light Freezing Fog,0,2013-03-29 09:15:00
4:34 AM,17.6,15.8,93,30.23,0.2,Calm,Calm,-,N/A,Fog,Light Freezing Fog,0,2013-03-29 09:34:00
4:55 AM,17.6,15.8,93,30.22,0.2,Calm,Calm,-,N/A,Fog,Light Freezing Fog,0,2013-03-29 09:55:00
5:14 AM,17.6,15.8,93,30.22,0.2,Calm,Calm,-,N/A,Fog,Light Freezing Fog,0,2013-03-29 10:14:00
5:34 AM,17.6,15.8,93,30.22,0.2,Calm,Calm,-,N/A,Fog,Light Freezing Fog,0,2013-03-29 10:34:00
5:55 AM,17.6,15.8,93,30.22,0.2,Calm,Calm,-,N/A,Fog,Light Freezing Fog,0,2013-03-29 10:55:00
6:14 AM,15.8,15.8,100,30.22,0.2,Calm,Calm,-,N/A,Fog,Light Freezing Fog,0,2013-03-29 11:14:00
6:34 AM,17.6,15.8,93,30.22,0.2,Calm,Calm,-,N/A,Fog,Light Freezing Fog,0,2013-03-29 11:34:00
6:55 AM,17.6,15.8,93,30.22,0.2,Calm,Calm,-,N/A,Fog,Light Freezing Fog,0,2013-03-29 11:55:00
7:14 AM,17.6,15.8,93,30.22,0.2,Calm,Calm,-,N/A,Fog,Light Freezing Fog,0,2013-03-29 12:14:00
7:34 AM,17.6,15.8,93,30.23,0.2,Calm,Calm,-,N/A,Fog,Light Freezing Fog,0,2013-03-29 12:34:00
7:55 AM,17.6,15.8,93,30.23,0.2,Calm,Calm,-,N/A,Fog,Light Freezing Fog,0,2013-03-29 12:55:00
8:14 AM,17.6,15.8,93,30.22,0.2,Calm,Calm,-,N/A,Fog,Light Freezing Fog,0,2013-03-29 13:14:00
8:34 AM,17.6,15.8,93,30.22,0.2,Calm,Calm,-,N/A,Fog,Light Freezing Fog,0,2013-03-29 13:34:00
8:54 AM,19.4,17.6,93,30.22,0.2,Calm,Calm,-,N/A,Fog,Light Freezing Fog,0,2013-03-29 13:54:00
9:15 AM,19.4,17.6,93,30.22,0.2,Calm,Calm,-,N/A,Fog,Light Freezing Fog,0,2013-03-29 14:15:00
9:34 AM,19.4,17.6,93,30.21,0.2,Calm,Calm,-,N/A,Fog,Light Freezing Fog,0,2013-03-29 14:34:00
9:54 AM,19.4,17.6,93,30.20,0.2,Calm,Calm,-,N/A,Fog,Light Freezing Fog,0,2013-03-29 14:54:00
10:15 AM,19.4,17.6,93,30.20,0.2,Calm,Calm,-,N/A,Fog,Light Freezing Fog,0,2013-03-29 15:15:00
10:34 AM,19.4,19.4,100,30.20,0.2,Calm,Calm,-,N/A,Fog,Light Freezing Fog,0,2013-03-29 15:34:00
10:54 AM,21.2,19.4,93,30.20,0.2,Calm,Calm,-,N/A,Fog,Light Freezing Fog,0,2013-03-29 15:54:00
11:14 AM,21.2,21.2,100,30.20,0.2,Calm,Calm,-,N/A,Fog,Light Freezing Fog,0,2013-03-29 16:14:00
11:55 AM,24.8,21.2,86,30.19,0.2,Calm,Calm,-,N/A,Fog,Light Freezing Fog,0,2013-03-29 16:55:00
12:14 PM,24.8,21.2,86,30.18,0.2,Calm,Calm,-,N/A,Fog,Light Freezing Fog,0,2013-03-29 17:14:00
12:34 PM,24.8,23.0,93,30.18,0.5,Calm,Calm,-,N/A,Fog,Light Freezing Fog,0,2013-03-29 17:34:00
12:55 PM,24.8,24.8,100,30.17,0.5,Calm,Calm,-,N/A,Fog,Light Freezing Fog,0,2013-03-29 17:55:00
1:14 PM,24.8,24.8,100,30.17,0.2,Calm,Calm,-,N/A,Fog,Light Freezing Fog,0,2013-03-29 18:14:00
1:34 PM,26.6,24.8,93,30.16,0.5,Calm,Calm,-,N/A,Fog,Light Freezing Fog,0,2013-03-29 18:34:00
1:55 PM,26.6,26.6,100,30.15,1.0,Calm,Calm,-,N/A,,Mostly Cloudy,0,2013-03-29 18:55:00
2:14 PM,26.6,26.6,100,30.14,1.8,Calm,Calm,-,N/A,,Clear,0,2013-03-29 19:14:00
2:35 PM,28.4,28.4,100,30.14,2.0,SW,3.5,-,N/A,,Mostly Cloudy,230,2013-03-29 19:35:00
2:54 PM,28.4,28.4,100,30.13,1.8,WSW,4.6,-,N/A,,Overcast,240,2013-03-29 19:54:00
3:14 PM,28.4,28.4,100,30.12,1.0,Calm,Calm,-,N/A,,Overcast,0,2013-03-29 20:14:00
3:35 PM,28.4,28.4,100,30.12,0.8,Calm,Calm,-,N/A,,Overcast,0,2013-03-29 20:35:00
3:54 PM,28.4,28.4,100,30.11,0.8,Calm,Calm,-,N/A,,Overcast,0,2013-03-29 20:54:00
4:14 PM,28.4,28.4,100,30.11,0.5,Calm,Calm,-,N/A,Fog,Light Freezing Fog,0,2013-03-29 21:14:00
4:35 PM,28.4,28.4,100,30.11,0.5,Calm,Calm,-,N/A,Fog,Light Freezing Fog,0,2013-03-29 21:35:00
4:54 PM,28.4,28.4,100,30.10,0.2,Calm,Calm,-,N/A,Fog,Light Freezing Fog,0,2013-03-29 21:54:00
5:14 PM,28.4,28.4,100,30.09,0.2,Calm,Calm,-,N/A,Fog,Light Freezing Fog,0,2013-03-29 22:14:00
5:35 PM,28.4,28.4,100,30.08,0.2,Calm,Calm,-,N/A,Fog,Light Freezing Fog,0,2013-03-29 22:35:00
5:54 PM,28.4,28.4,100,30.08,0.2,Calm,Calm,-,N/A,Fog,Light Freezing Fog,0,2013-03-29 22:54:00
6:14 PM,28.4,28.4,100,30.08,0.2,Calm,Calm,-,N/A,Fog,Light Freezing Fog,0,2013-03-29 23:14:00
6:35 PM,28.4,28.4,100,30.07,0.2,WSW,3.5,-,N/A,Fog,Light Freezing Fog,250,2013-03-29 23:35:00
6:54 PM,28.4,28.4,100,30.06,0.2,SW,3.5,-,N/A,Fog,Light Freezing Fog,230,2013-03-29 23:54:00
7:14 PM,28.4,28.4,100,30.06,0.2,Calm,Calm,-,N/A,Fog,Light Freezing Fog,0,2013-03-30 00:14:00
7:35 PM,28.4,28.4,100,30.04,0.2,Calm,Calm,-,N/A,Fog,Light Freezing Fog,0,2013-03-30 00:35:00
7:54 PM,28.4,28.4,100,30.04,0.2,Calm,Calm,-,N/A,Fog,Light Freezing Fog,0,2013-03-30 00:54:00
8:14 PM,28.4,26.6,93,30.04,0.2,Calm,Calm,-,N/A,Fog,Light Freezing Fog,0,2013-03-30 01:14:00
8:35 PM,28.4,26.6,93,30.03,0.2,Calm,Calm,-,N/A,Fog,Light Freezing Fog,0,2013-03-30 01:35:00
8:54 PM,26.6,26.6,100,30.03,0.2,Calm,Calm,-,N/A,Fog,Light Freezing Fog,0,2013-03-30 01:54:00
9:14 PM,26.6,26.6,100,30.03,0.2,Calm,Calm,-,N/A,Fog,Light Freezing Fog,0,2013-03-30 02:14:00
9:35 PM,26.6,26.6,100,30.04,0.2,Calm,Calm,-,N/A,Fog,Light Freezing Fog,0,2013-03-30 02:35:00
9:54 PM,26.6,26.6,100,30.04,0.2,Calm,Calm,-,N/A,Fog,Light Freezing Fog,0,2013-03-30 02:54:00
10:15 PM,26.6,26.6,100,30.04,0.2,WNW,3.5,-,N/A,Fog,Light Freezing Fog,300,2013-03-30 03:15:00
10:35 PM,26.6,26.6,100,30.04,0.2,NW,4.6,-,N/A,Fog,Light Freezing Fog,310,2013-03-30 03:35:00
10:54 PM,28.4,26.6,93,30.03,0.2,North,4.6,-,N/A,Fog,Light Freezing Fog,350,2013-03-30 03:54:00
11:15 PM,28.4,28.4,100,30.02,0.2,Calm,Calm,-,N/A,Fog,Light Freezing Fog,0,2013-03-30 04:15:00
11:35 PM,28.4,28.4,100,30.01,0.2,North,3.5,-,N/A,Fog,Light Freezing Fog,360,2013-03-30 04:35:00
11:54 PM,28.4,28.4,100,30.01,0.2,NNW,3.5,-,N/A,Fog,Light Freezing Fog,340,2013-03-30 04:54:00